Time;durP1;ratioP1;P1;durP2;ratioP2;P2;SDS_P1;SDS_P2;PMS_P1;PMS_P2;Temp;Humidity;BMP_temperature;BMP_pressure;BME280_temperature;BME280_humidity;BME280_pressure;Samples;Min_cycle;Max_cycle;Signal;HPM_P1;HPM_P2
2022/06/23 00:00:56;;;;;;;;;;;;;;;18.17;63.23;99878.59;5032704;28;1366;-96
2022/06/23 00:03:28;;;;;;;;;;;;;;;18.16;63.27;99877.78;5032169;28;1891;-96
2022/06/23 00:05:58;;;;;;;;;;;;;;;18.15;63.45;99878.09;5018391;28;1228;-96
2022/06/23 00:08:39;;;;;;;;;;;;;;;18.15;63.27;99878.09;5035706;28;1464;-96
2022/06/23 00:11:08;;;;;;;;;;;;;;;18.14;63.39;99888.16;5034975;28;1205;-96
2022/06/23 00:13:40;;;;;;;;;;;;;;;18.12;63.38;99876.75;5036329;28;1301;-96
2022/06/23 00:16:28;;;;;;;;;;;;;;;18.12;63.35;99882.19;5039159;28;1225;-96
2022/06/23 00:18:58;;;;;;;;;;;;;;;18.11;63.16;99880.53;5042082;28;1233;-96
2022/06/23 00:21:33;;;;;;;;;;;;;;;18.11;63.10;99880.53;5038153;28;1328;-96
2022/06/23 00:24:04;;;;;;;;;;;;;;;18.10;63.16;99884.38;5036187;28;1969;-96
2022/06/23 00:26:37;;;;;;;;;;;;;;;18.10;63.19;99892.56;5022278;28;1390;-96
2022/06/23 00:29:06;;;;;;;;;;;;;;;18.10;63.17;99889.03;5023010;28;1308;-96
2022/06/23 00:31:37;;;;;;;;;;;;;;;18.10;63.24;99886.28;5038884;28;873;-96
2022/06/23 00:34:15;;;;;;;;;;;;;;;18.09;63.31;99884.69;5022858;28;1348;-96
2022/06/23 00:36:44;;;;;;;;;;;;;;;18.08;63.20;99886.56;5032225;28;1575;-96
2022/06/23 00:39:19;;;;;;;;;;;;;;;18.08;63.26;99888.50;5041225;28;1375;-96
2022/06/23 00:41:59;;;;;;;;;;;;;;;18.07;63.15;99895.84;5040942;28;1314;-96
2022/06/23 00:52:35;;;;;;;;;;;;;;;18.05;63.01;99905.41;5017918;28;1283;-96
2022/06/23 00:55:06;;;;;;;;;;;;;;;18.04;63.10;99901.88;5023437;28;1335;-96
2022/06/23 00:57:46;;;;;;;;;;;;;;;18.03;62.94;99899.41;5022423;28;1408;-96
2022/06/23 01:00:33;;;;;;;;;;;;;;;18.02;63.19;99889.63;5021356;28;1209;-96
2022/06/23 01:03:01;;;;;;;;;;;;;;;18.01;62.96;99890.75;5021705;28;1919;-96
2022/06/23 01:05:44;;;;;;;;;;;;;;;18.00;62.95;99887.19;5023334;28;1646;-96
2022/06/23 01:08:17;;;;;;;;;;;;;;;17.99;63.11;99885.56;5022241;28;1197;-96
2022/06/23 01:18:50;;;;;;;;;;;;;;;17.97;63.16;99897.84;5020268;28;1385;-96
2022/06/23 01:21:24;;;;;;;;;;;;;;;17.96;63.19;99907.91;5022527;28;1366;-96
2022/06/23 01:26:56;;;;;;;;;;;;;;;17.95;62.95;99905.50;5019641;28;1215;-96
2022/06/23 01:29:24;;;;;;;;;;;;;;;17.93;62.99;99911.22;5019434;28;1228;-96
2022/06/23 01:31:57;;;;;;;;;;;;;;;17.92;63.02;99910.41;5004355;28;1384;-96
2022/06/23 01:39:52;;;;;;;;;;;;;;;17.91;63.11;99914.25;5016987;28;1225;-96
2022/06/23 01:45:07;;;;;;;;;;;;;;;17.88;63.01;99895.75;5039941;28;1435;-96
2022/06/23 01:47:38;;;;;;;;;;;;;;;17.88;63.06;99900.34;5056783;28;886;-96
2022/06/23 01:50:11;;;;;;;;;;;;;;;17.88;62.90;99905.78;5039481;28;1151;-96
2022/06/23 01:52:47;;;;;;;;;;;;;;;17.87;63.14;99899.53;5038250;28;1441;-96
2022/06/23 01:55:16;;;;;;;;;;;;;;;17.88;63.01;99916.69;5038787;28;1428;-96
2022/06/23 01:57:45;;;;;;;;;;;;;;;17.87;63.05;99924.06;5052860;28;1259;-96
2022/06/23 02:08:29;;;;;;;;;;;;;;;17.84;63.02;99921.09;5030600;28;1157;-96
2022/06/23 02:10:57;;;;;;;;;;;;;;;17.83;63.00;99933.91;5034224;28;1487;-96
2022/06/23 02:16:07;;;;;;;;;;;;;;;17.82;62.89;99920.56;5029476;28;1429;-96
2022/06/23 02:18:39;;;;;;;;;;;;;;;17.82;62.81;99926.00;5033421;28;1385;-96
2022/06/23 02:23:49;;;;;;;;;;;;;;;17.79;62.94;99918.41;5031746;28;1890;-96
2022/06/23 02:26:17;;;;;;;;;;;;;;;17.79;62.80;99923.84;5032596;28;1401;-96
2022/06/23 02:28:47;;;;;;;;;;;;;;;17.79;62.92;99921.13;5036156;28;1365;-96
2022/06/23 02:31:14;;;;;;;;;;;;;;;17.79;62.71;99923.84;5035216;28;1297;-96
2022/06/23 02:33:42;;;;;;;;;;;;;;;17.77;63.01;99921.38;5034792;28;1215;-96
2022/06/23 02:36:09;;;;;;;;;;;;;;;17.77;62.71;99935.00;5035129;28;1180;-96
2022/06/23 02:38:36;;;;;;;;;;;;;;;17.76;62.83;99938.81;5034145;28;1376;-96
2022/06/23 02:41:05;;;;;;;;;;;;;;;17.75;62.69;99939.91;5017420;28;1352;-96
2022/06/23 02:43:33;;;;;;;;;;;;;;;17.75;62.84;99936.38;5023889;28;1895;-96
2022/06/23 02:46:02;;;;;;;;;;;;;;;17.75;62.65;99941.81;5031956;28;1302;-96
2022/06/23 02:48:33;;;;;;;;;;;;;;;17.72;62.71;99943.19;5016554;28;1221;-96
2022/06/23 02:51:01;;;;;;;;;;;;;;;17.73;62.69;99949.44;5031892;28;1213;-96
2022/06/23 02:53:31;;;;;;;;;;;;;;;17.71;62.89;99949.75;5041057;28;1207;-96
2022/06/23 02:56:01;;;;;;;;;;;;;;;17.69;62.86;99952.75;5034138;28;1311;-96
2022/06/23 02:58:30;;;;;;;;;;;;;;;17.69;62.83;99941.84;5034900;28;1405;-96
2022/06/23 03:00:59;;;;;;;;;;;;;;;17.68;62.52;99944.88;5032151;28;1249;-96
2022/06/23 03:03:28;;;;;;;;;;;;;;;17.67;62.85;99949.47;5013796;28;1971;-96
2022/06/23 03:05:56;;;;;;;;;;;;;;;17.68;62.64;99948.41;5014376;28;1281;-96
2022/06/23 03:08:24;;;;;;;;;;;;;;;17.68;62.62;99942.16;5015392;28;1451;-96
2022/06/23 03:10:52;;;;;;;;;;;;;;;17.68;62.58;99933.97;5018987;28;1544;-96
2022/06/23 03:13:20;;;;;;;;;;;;;;;17.67;62.70;99940.50;5034643;28;1470;-96
2022/06/23 03:15:48;;;;;;;;;;;;;;;17.66;62.76;99944.31;5034043;28;1354;-96
2022/06/23 03:18:17;;;;;;;;;;;;;;;17.65;62.59;99940.78;5034041;28;1415;-96
2022/06/23 03:20:46;;;;;;;;;;;;;;;17.65;62.66;99937.25;5032874;28;1232;-96
2022/06/23 03:23:16;;;;;;;;;;;;;;;17.64;62.52;99938.34;5032590;28;1914;-96
2022/06/23 03:25:46;;;;;;;;;;;;;;;17.63;62.79;99934.81;5034779;28;1336;-96
2022/06/23 03:28:14;;;;;;;;;;;;;;;17.62;62.72;99941.34;5033716;28;1289;-96
2022/06/23 03:30:43;;;;;;;;;;;;;;;17.62;62.67;99949.53;5033381;28;1269;-96
2022/06/23 03:33:11;;;;;;;;;;;;;;;17.61;62.64;99950.59;5027736;28;1326;-96
2022/06/23 03:35:38;;;;;;;;;;;;;;;17.62;62.69;99944.09;5031744;28;1534;-96
2022/06/23 03:38:09;;;;;;;;;;;;;;;17.62;62.47;99948.72;5015703;28;1213;-96
2022/06/23 03:43:23;;;;;;;;;;;;;;;17.59;62.40;99951.97;5031676;28;1956;-96
2022/06/23 03:45:51;;;;;;;;;;;;;;;17.59;62.43;99960.16;5031046;28;1426;-96
2022/06/23 03:48:19;;;;;;;;;;;;;;;17.58;62.35;99967.50;5033104;28;1256;-96
2022/06/23 03:50:47;;;;;;;;;;;;;;;17.58;62.66;99963.97;5030675;28;1362;-96
2022/06/23 03:53:16;;;;;;;;;;;;;;;17.57;62.71;99956.91;5031871;28;1380;-96
2022/06/23 03:55:43;;;;;;;;;;;;;;;17.56;62.40;99971.59;5032083;28;1327;-96
2022/06/23 03:58:10;;;;;;;;;;;;;;;17.57;62.33;99974.06;5032481;28;1267;-96
2022/06/23 04:00:38;;;;;;;;;;;;;;;17.55;62.37;99973.50;5033346;28;1412;-96
2022/06/23 04:03:06;;;;;;;;;;;;;;;17.55;62.30;99984.41;5033843;28;1918;-96
2022/06/23 04:05:33;;;;;;;;;;;;;;;17.54;62.41;99996.38;5029696;28;1193;-96
2022/06/23 04:10:45;;;;;;;;;;;;;;;17.53;62.45;99999.38;5029306;28;1283;-93
2022/06/23 04:13:15;;;;;;;;;;;;;;;17.53;62.35;99999.38;5024600;28;3778;-96
2022/06/23 04:15:42;;;;;;;;;;;;;;;17.52;62.48;99997.75;5021794;28;3787;-96
2022/06/23 04:18:09;;;;;;;;;;;;;;;17.51;62.51;99996.94;5027238;28;1624;-96
2022/06/23 04:20:37;;;;;;;;;;;;;;;17.51;62.46;99987.97;5027433;28;1361;-96
2022/06/23 04:23:04;;;;;;;;;;;;;;;17.50;62.35;99992.59;5026056;28;1297;-96
2022/06/23 04:25:31;;;;;;;;;;;;;;;17.49;62.38;100007.28;5025710;28;1977;-96
2022/06/23 04:27:58;;;;;;;;;;;;;;;17.48;62.38;100011.94;5027741;28;1297;-96
2022/06/23 04:30:26;;;;;;;;;;;;;;;17.49;62.53;100010.03;5028162;28;1240;-96
2022/06/23 04:32:53;;;;;;;;;;;;;;;17.48;62.26;100005.69;5029371;28;1262;-96
2022/06/23 04:35:21;;;;;;;;;;;;;;;17.45;62.32;100015.22;5025546;28;1271;-96
2022/06/23 04:37:48;;;;;;;;;;;;;;;17.45;62.54;100017.94;5014209;28;1293;-96
2022/06/23 04:40:15;;;;;;;;;;;;;;;17.46;62.34;100016.84;5030485;28;1439;-96
2022/06/23 04:42:42;;;;;;;;;;;;;;;17.44;62.32;100013.59;5024071;28;1197;-96
2022/06/23 04:45:19;;;;;;;;;;;;;;;17.43;62.31;100022.03;5023058;28;1895;-96
2022/06/23 04:47:56;;;;;;;;;;;;;;;17.43;62.29;100032.91;5026677;28;1270;-96
2022/06/23 04:50:23;;;;;;;;;;;;;;;17.43;62.46;100035.63;5037763;28;2003;-96
2022/06/23 04:52:50;;;;;;;;;;;;;;;17.41;62.53;100041.38;5022224;28;1321;-96
2022/06/23 04:55:16;;;;;;;;;;;;;;;17.42;62.31;100040.25;5017924;28;1284;-96
2022/06/23 04:57:43;;;;;;;;;;;;;;;17.42;62.51;100042.19;5023763;28;1352;-96
2022/06/23 05:00:10;;;;;;;;;;;;;;;17.39;62.18;100043.53;5024586;28;1871;-96
2022/06/23 05:02:36;;;;;;;;;;;;;;;17.41;62.18;100041.38;5022078;28;1293;-96
2022/06/23 05:05:03;;;;;;;;;;;;;;;17.41;62.12;100043.25;5027443;28;1970;-96
2022/06/23 05:07:30;;;;;;;;;;;;;;;17.40;62.40;100047.06;5027205;28;1263;-96
2022/06/23 05:09:57;;;;;;;;;;;;;;;17.39;62.18;100051.72;5026347;28;1249;-96
2022/06/23 05:15:08;;;;;;;;;;;;;;;17.38;62.19;100046.53;5028340;28;1090;-96
2022/06/23 05:17:38;;;;;;;;;;;;;;;17.37;62.36;100047.63;5021539;28;2496;-96
2022/06/23 05:20:05;;;;;;;;;;;;;;;17.39;62.21;100056.34;5029957;28;1216;-96
2022/06/23 05:22:32;;;;;;;;;;;;;;;17.36;62.13;100054.97;5030395;28;1328;-96
2022/06/23 05:24:59;;;;;;;;;;;;;;;17.37;62.09;100066.69;5024877;28;3908;-96
2022/06/23 05:27:25;;;;;;;;;;;;;;;17.37;62.17;100061.25;5021497;28;1296;-96
2022/06/23 05:29:52;;;;;;;;;;;;;;;17.35;62.16;100058.78;5018573;28;3946;-96
2022/06/23 05:32:18;;;;;;;;;;;;;;;17.35;61.99;100063.41;5019829;28;2423;-96
2022/06/23 05:34:45;;;;;;;;;;;;;;;17.35;61.99;100058.78;5016853;28;3889;-96
2022/06/23 05:37:11;;;;;;;;;;;;;;;17.36;62.29;100067.78;5019290;28;2384;-96
2022/06/23 05:39:37;;;;;;;;;;;;;;;17.34;62.22;100065.31;5012763;28;3319;-96
2022/06/23 05:42:04;;;;;;;;;;;;;;;17.35;62.03;100064.22;5016857;28;3756;-96
2022/06/23 05:44:30;;;;;;;;;;;;;;;17.34;62.35;100064.50;5018187;28;2458;-95
2022/06/23 05:46:57;;;;;;;;;;;;;;;17.34;62.02;100064.50;5032200;28;2435;-96
2022/06/23 05:49:23;;;;;;;;;;;;;;;17.34;62.26;100062.59;5029804;28;2437;-96
2022/06/23 05:51:50;;;;;;;;;;;;;;;17.34;62.12;100061.78;5015294;28;3616;-96
2022/06/23 05:54:24;;;;;;;;;;;;;;;17.33;62.03;100065.63;5019221;28;1395;-96
2022/06/23 05:56:51;;;;;;;;;;;;;;;17.33;61.94;100068.34;5016753;28;3938;-96
2022/06/23 05:59:17;;;;;;;;;;;;;;;17.32;62.18;100070.22;5018472;28;1330;-96
2022/06/23 06:01:43;;;;;;;;;;;;;;;17.33;62.00;100074.59;5019299;28;2327;-95
2022/06/23 06:04:10;;;;;;;;;;;;;;;17.33;62.00;100073.78;5033554;28;3273;-96
2022/06/23 06:06:36;;;;;;;;;;;;;;;17.33;62.17;100076.50;5024535;28;2055;-95
2022/06/23 06:11:47;;;;;;;;;;;;;;;17.32;62.06;100075.66;5014280;28;3846;-95
2022/06/23 06:14:13;;;;;;;;;;;;;;;17.33;62.17;100082.75;5022996;28;2985;-96
2022/06/23 06:16:40;;;;;;;;;;;;;;;17.32;61.96;100083.81;5028694;28;3280;-96
2022/06/23 06:19:06;;;;;;;;;;;;;;;17.32;61.96;100075.66;5028054;28;3670;-96
2022/06/23 06:21:32;;;;;;;;;;;;;;;17.32;61.94;100083.00;5018526;28;2441;-96
2022/06/23 06:23:59;;;;;;;;;;;;;;;17.32;62.02;100083.81;5012130;28;3978;-96
2022/06/23 06:26:26;;;;;;;;;;;;;;;17.32;61.88;100083.00;5015462;28;3363;-96
2022/06/23 06:28:52;;;;;;;;;;;;;;;17.32;61.78;100086.56;5012207;28;3346;-95
2022/06/23 06:31:19;;;;;;;;;;;;;;;17.33;61.85;100087.38;5012456;28;3682;-96
2022/06/23 06:33:48;;;;;;;;;;;;;;;17.32;61.87;100092.00;5009831;28;3878;-96
2022/06/23 06:36:15;;;;;;;;;;;;;;;17.32;61.87;100086.56;5032551;28;2450;-96
2022/06/23 06:38:41;;;;;;;;;;;;;;;17.32;61.84;100075.66;5008226;28;3715;-95
2022/06/23 06:41:07;;;;;;;;;;;;;;;17.32;61.97;100081.09;5013473;28;3962;-95
2022/06/23 06:43:34;;;;;;;;;;;;;;;17.32;61.94;100075.66;5008509;28;5372;-96
2022/06/23 06:46:00;;;;;;;;;;;;;;;17.32;61.96;100080.28;5009412;28;4408;-95
2022/06/23 06:48:27;;;;;;;;;;;;;;;17.32;61.77;100094.72;5015512;28;3831;-96
2022/06/23 06:50:53;;;;;;;;;;;;;;;17.32;61.68;100089.28;5014114;28;4365;-94
2022/06/23 06:53:19;;;;;;;;;;;;;;;17.33;61.80;100085.47;5031351;28;3896;-96
2022/06/23 06:55:46;;;;;;;;;;;;;;;17.33;61.92;100088.19;5031976;28;3398;-95
2022/06/23 06:58:12;;;;;;;;;;;;;;;17.34;61.83;100086.28;5024857;28;3635;-96
2022/06/23 07:00:38;;;;;;;;;;;;;;;17.31;61.63;100087.66;5011301;28;3900;-96
2022/06/23 07:03:06;;;;;;;;;;;;;;;17.32;61.69;100088.47;5016517;28;3812;-96
2022/06/23 07:05:32;;;;;;;;;;;;;;;17.33;61.84;100090.13;5015198;28;3709;-96
2022/06/23 07:07:58;;;;;;;;;;;;;;;17.33;61.81;100093.66;5012706;28;2919;-95
2022/06/23 07:10:25;;;;;;;;;;;;;;;17.33;61.74;100093.66;5014906;28;4112;-96
2022/06/23 07:12:51;;;;;;;;;;;;;;;17.33;61.71;100101.81;5018191;28;1212;-96
2022/06/23 07:15:18;;;;;;;;;;;;;;;17.35;61.88;100090.63;5021183;28;4008;-96
2022/06/23 07:17:44;;;;;;;;;;;;;;;17.32;61.61;100086.56;5016496;28;3627;-95
2022/06/23 07:20:10;;;;;;;;;;;;;;;17.33;61.78;100090.91;5012709;28;3825;-96
2022/06/23 07:22:37;;;;;;;;;;;;;;;17.34;61.69;100102.63;5010451;28;3505;-96
2022/06/23 07:25:04;;;;;;;;;;;;;;;17.34;61.60;100098.00;5033269;28;2015;-96
2022/06/23 07:27:31;;;;;;;;;;;;;;;17.34;61.81;100106.16;5011713;28;3866;-95
2022/06/23 07:29:57;;;;;;;;;;;;;;;17.34;61.79;100111.59;5016098;28;1201;-95
2022/06/23 07:32:24;;;;;;;;;;;;;;;17.34;61.77;100117.03;5008307;28;2244;-95
2022/06/23 07:34:50;;;;;;;;;;;;;;;17.33;61.71;100115.41;5001723;28;1256;-96
2022/06/23 07:37:17;;;;;;;;;;;;;;;17.34;61.74;100119.75;5029820;28;3798;-96
2022/06/23 07:39:43;;;;;;;;;;;;;;;17.34;61.59;100119.75;4998732;28;1225;-96
2022/06/23 07:42:10;;;;;;;;;;;;;;;17.35;61.72;100123.28;5008600;28;3826;-96
2022/06/23 07:44:36;;;;;;;;;;;;;;;17.35;61.82;100128.72;5024970;28;3656;-96
2022/06/23 07:47:02;;;;;;;;;;;;;;;17.34;61.80;100132.56;4997946;28;3933;-96
2022/06/23 07:49:29;;;;;;;;;;;;;;;17.35;61.73;100129.53;5008271;28;1301;-96
2022/06/23 07:51:55;;;;;;;;;;;;;;;17.35;61.64;100126.81;5007992;28;3635;-96
2022/06/23 07:54:22;;;;;;;;;;;;;;;17.35;61.64;100135.00;4998787;28;1951;-96
2022/06/23 07:56:49;;;;;;;;;;;;;;;17.35;61.65;100142.34;5011928;28;3630;-96
2022/06/23 07:59:16;;;;;;;;;;;;;;;17.34;61.86;100140.72;5029219;28;1346;-96
2022/06/23 08:01:42;;;;;;;;;;;;;;;17.35;61.83;100140.44;5011499;28;3753;-96
2022/06/23 08:04:08;;;;;;;;;;;;;;;17.35;61.77;100132.25;5013843;28;1914;-96
2022/06/23 08:06:35;;;;;;;;;;;;;;;17.35;61.81;100145.06;5013390;28;3799;-96
2022/06/23 08:09:01;;;;;;;;;;;;;;;17.36;61.70;100141.28;5015730;28;1435;-96
2022/06/23 08:14:12;;;;;;;;;;;;;;;17.36;61.83;100135.84;5009041;28;3805;-96
2022/06/23 08:16:49;;;;;;;;;;;;;;;17.36;61.88;100142.09;5019520;28;3842;-96
2022/06/23 08:19:16;;;;;;;;;;;;;;;17.37;61.86;100145.63;5013406;28;1976;-96
2022/06/23 08:21:43;;;;;;;;;;;;;;;17.37;61.68;100151.88;5007433;28;3848;-96
2022/06/23 08:24:09;;;;;;;;;;;;;;;17.38;61.89;100150.81;5011943;28;1276;-96
2022/06/23 08:26:36;;;;;;;;;;;;;;;17.38;61.91;100150.81;4998946;28;3750;-96
2022/06/23 08:29:02;;;;;;;;;;;;;;;17.37;62.00;100143.69;4999595;28;3819;-96
2022/06/23 08:31:29;;;;;;;;;;;;;;;17.38;61.87;100150.81;5000103;28;2173;-96
2022/06/23 08:33:55;;;;;;;;;;;;;;;17.38;61.88;100155.41;5013040;28;4000;-96
2022/06/23 08:36:22;;;;;;;;;;;;;;;17.38;61.73;100164.41;4998976;28;3905;-96
2022/06/23 08:38:48;;;;;;;;;;;;;;;17.38;61.85;100164.41;5011883;28;1161;-96
2022/06/23 08:41:15;;;;;;;;;;;;;;;17.38;61.92;100156.25;5004383;28;3814;-96
2022/06/23 08:43:41;;;;;;;;;;;;;;;17.39;61.75;100146.97;5015916;28;4147;-96
2022/06/23 08:46:08;;;;;;;;;;;;;;;17.40;61.82;100151.31;5003500;28;4379;-96
2022/06/23 08:48:35;;;;;;;;;;;;;;;17.39;61.83;100146.97;5014635;28;4046;-96
2022/06/23 08:51:01;;;;;;;;;;;;;;;17.41;61.90;100152.13;5011874;28;3677;-96
2022/06/23 08:53:28;;;;;;;;;;;;;;;17.41;61.86;100155.69;5004403;28;1373;-96
2022/06/23 08:55:55;;;;;;;;;;;;;;;17.41;61.96;100152.97;5021986;28;2748;-96
2022/06/23 08:58:21;;;;;;;;;;;;;;;17.42;61.97;100151.06;5005614;28;1291;-96
2022/06/23 09:00:48;;;;;;;;;;;;;;;17.41;61.96;100150.25;5012484;28;3967;-96
2022/06/23 09:03:14;;;;;;;;;;;;;;;17.42;61.94;100151.88;5011558;28;3386;-96
2022/06/23 09:05:41;;;;;;;;;;;;;;;17.43;62.15;100158.13;5018012;28;1899;-96
2022/06/23 09:08:07;;;;;;;;;;;;;;;17.43;61.93;100153.50;5017716;28;2278;-96
2022/06/23 09:10:34;;;;;;;;;;;;;;;17.43;61.81;100145.31;5016306;28;2007;-96
2022/06/23 09:13:00;;;;;;;;;;;;;;;17.44;61.96;100146.97;5016473;28;1309;-96
2022/06/23 09:15:28;;;;;;;;;;;;;;;17.45;61.91;100153.22;5017898;28;3466;-96
2022/06/23 09:17:54;;;;;;;;;;;;;;;17.46;61.96;100144.78;5012300;28;3403;-96
2022/06/23 09:20:21;;;;;;;;;;;;;;;17.47;61.92;100132.81;5033871;28;1263;-96
2022/06/23 09:22:47;;;;;;;;;;;;;;;17.46;61.83;100136.59;5003542;28;3857;-96
2022/06/23 09:25:14;;;;;;;;;;;;;;;17.46;61.97;100136.59;5012767;28;3919;-96
2022/06/23 09:27:40;;;;;;;;;;;;;;;17.47;61.98;100129.25;5008085;28;1410;-96
2022/06/23 09:30:07;;;;;;;;;;;;;;;17.48;62.06;100133.63;5015385;28;2496;-96
2022/06/23 09:32:33;;;;;;;;;;;;;;;17.48;62.13;100142.59;5017141;28;1257;-96
2022/06/23 09:35:00;;;;;;;;;;;;;;;17.48;61.88;100129.00;5013061;28;3916;-96
2022/06/23 09:37:27;;;;;;;;;;;;;;;17.51;62.04;100138.50;5020236;28;1359;-96
2022/06/23 09:40:03;;;;;;;;;;;;;;;17.52;62.00;100142.06;5007075;28;3702;-96
2022/06/23 09:42:29;;;;;;;;;;;;;;;17.51;61.99;100129.53;5018195;28;1983;-96
2022/06/23 09:44:56;;;;;;;;;;;;;;;17.53;62.09;100128.19;5004744;28;1978;-96
2022/06/23 09:47:22;;;;;;;;;;;;;;;17.52;62.02;100123.81;5010117;28;3335;-96
2022/06/23 09:49:48;;;;;;;;;;;;;;;17.52;62.19;100131.97;4997702;28;1531;-96
2022/06/23 09:52:17;;;;;;;;;;;;;;;17.53;61.98;100133.63;5004982;28;3674;-96
2022/06/23 09:54:44;;;;;;;;;;;;;;;17.56;61.88;100140.41;5001116;28;3517;-96
2022/06/23 09:57:10;;;;;;;;;;;;;;;17.55;62.12;100141.50;4991000;28;1187;-96
2022/06/23 09:59:37;;;;;;;;;;;;;;;17.56;61.94;100145.84;5000126;28;3848;-96
2022/06/23 10:02:03;;;;;;;;;;;;;;;17.57;61.95;100150.22;4998046;28;1970;-96
2022/06/23 10:04:29;;;;;;;;;;;;;;;17.56;62.01;100143.97;4999070;28;3701;-96
2022/06/23 10:06:56;;;;;;;;;;;;;;;17.55;62.26;100136.06;5015280;28;2002;-96
2022/06/23 10:09:22;;;;;;;;;;;;;;;17.56;61.97;100146.69;4996866;28;3822;-96
2022/06/23 10:11:49;;;;;;;;;;;;;;;17.59;61.98;100134.41;5003533;28;3660;-96
2022/06/23 10:14:16;;;;;;;;;;;;;;;17.60;62.11;100136.03;4996991;28;1270;-96
2022/06/23 10:16:42;;;;;;;;;;;;;;;17.60;62.00;100141.50;5004621;28;3466;-96
2022/06/23 10:19:09;;;;;;;;;;;;;;;17.59;62.16;100162.47;4998474;28;1189;-96
2022/06/23 10:21:36;;;;;;;;;;;;;;;17.61;62.03;100160.25;5003557;28;3816;-96
2022/06/23 10:24:02;;;;;;;;;;;;;;;17.63;62.17;100154.56;5004343;28;1995;-96
2022/06/23 10:26:29;;;;;;;;;;;;;;;17.64;62.20;100158.91;4998967;28;1966;-96
2022/06/23 10:28:57;;;;;;;;;;;;;;;17.66;62.20;100168.44;5002974;28;1250;-96
2022/06/23 10:31:24;;;;;;;;;;;;;;;17.67;62.10;100171.97;5000084;28;3882;-96
2022/06/23 10:33:51;;;;;;;;;;;;;;;17.68;62.25;100168.16;4998788;28;1280;-96
2022/06/23 10:36:17;;;;;;;;;;;;;;;17.68;62.14;100165.44;4997684;28;2806;-96
2022/06/23 10:38:46;;;;;;;;;;;;;;;17.68;62.15;100160.81;5011173;28;1278;-96
2022/06/23 10:41:13;;;;;;;;;;;;;;;17.69;62.35;100172.50;5000621;28;1742;-96
2022/06/23 10:43:39;;;;;;;;;;;;;;;17.69;62.10;100164.34;5005208;28;2032;-96
2022/06/23 10:46:06;;;;;;;;;;;;;;;17.72;62.41;100166.50;5010630;28;1918;-96
2022/06/23 10:48:33;;;;;;;;;;;;;;;17.73;62.14;100173.56;5009031;28;2411;-96
2022/06/23 10:51:00;;;;;;;;;;;;;;;17.74;62.12;100163.53;5012449;28;1308;-96
2022/06/23 10:53:26;;;;;;;;;;;;;;;17.75;62.28;100160.50;5017928;28;3710;-96
2022/06/23 10:55:53;;;;;;;;;;;;;;;17.77;62.13;100165.69;5009131;28;2349;-96
2022/06/23 10:58:20;;;;;;;;;;;;;;;17.78;62.19;100161.91;5022488;28;1577;-96
2022/06/23 11:00:46;;;;;;;;;;;;;;;17.79;62.36;100158.06;5022647;28;1264;-96
2022/06/23 11:03:13;;;;;;;;;;;;;;;17.79;62.11;100164.31;5025180;28;1372;-96
2022/06/23 11:05:40;;;;;;;;;;;;;;;17.80;62.38;100157.81;5020002;28;2021;-96
2022/06/23 11:08:06;;;;;;;;;;;;;;;17.81;62.26;100159.44;5024336;28;1170;-96
2022/06/23 11:10:33;;;;;;;;;;;;;;;17.82;62.37;100152.88;5024109;28;1299;-96
2022/06/23 11:13:00;;;;;;;;;;;;;;;17.83;62.30;100154.53;5009913;28;2040;-96
2022/06/23 11:15:27;;;;;;;;;;;;;;;17.85;62.28;100165.97;5019068;28;2133;-96
2022/06/23 11:17:54;;;;;;;;;;;;;;;17.86;62.42;100155.88;5007818;28;1253;-96
2022/06/23 11:20:21;;;;;;;;;;;;;;;17.87;62.44;100169.22;5022931;28;1622;-96
2022/06/23 11:22:50;;;;;;;;;;;;;;;17.87;62.65;100163.75;5017322;28;1491;-96
2022/06/23 11:25:17;;;;;;;;;;;;;;;17.88;62.64;100164.56;5020902;28;1997;-96
2022/06/23 11:27:47;;;;;;;;;;;;;;;17.90;62.70;100163.22;5009459;28;1293;-96
2022/06/23 11:30:14;;;;;;;;;;;;;;;17.90;62.75;100160.47;5017757;28;1355;-96
2022/06/23 11:32:43;;;;;;;;;;;;;;;17.92;62.61;100169.19;5024072;28;1247;-96
2022/06/23 11:37:57;;;;;;;;;;;;;;;17.96;62.76;100169.47;5029684;28;2426;-96
2022/06/23 11:40:26;;;;;;;;;;;;;;;17.99;62.75;100179.00;5048371;28;1393;-96
2022/06/23 11:42:54;;;;;;;;;;;;;;;18.00;62.72;100176.00;5031618;28;1506;-96
2022/06/23 11:45:24;;;;;;;;;;;;;;;18.01;62.75;100190.44;5014034;28;1973;-96
2022/06/23 11:47:51;;;;;;;;;;;;;;;18.02;62.98;100173.78;5015105;28;1436;-96
2022/06/23 11:50:21;;;;;;;;;;;;;;;18.06;63.08;100176.78;5016388;28;1365;-96
2022/06/23 11:58:56;;;;;;;;;;;;;;;18.10;63.12;100191.47;5032758;28;1346;-96
2022/06/23 12:01:34;;;;;;;;;;;;;;;18.10;63.34;100184.13;5015926;28;2386;-96
2022/06/23 12:07:08;;;;;;;;;;;;;;;18.13;63.48;100189.00;5031067;28;1868;-96
2022/06/23 12:09:39;;;;;;;;;;;;;;;18.15;63.54;100186.03;5007439;28;1338;-96
2022/06/23 12:17:35;;;;;;;;;;;;;;;18.20;63.76;100210.50;5018058;28;1203;-96
2022/06/23 12:20:14;;;;;;;;;;;;;;;18.22;63.77;100199.34;5020361;28;2423;-96
2022/06/23 12:22:41;;;;;;;;;;;;;;;18.24;64.08;100216.25;5047748;23;1700;-96
2022/06/23 12:25:09;;;;;;;;;;;;;;;18.25;64.07;100220.59;5054145;28;2178;-96
2022/06/23 12:27:37;;;;;;;;;;;;;;;18.27;64.05;100221.13;5054455;28;1919;-96
2022/06/23 12:30:17;;;;;;;;;;;;;;;18.30;64.20;100223.31;5073789;28;1076;-96
2022/06/23 12:36:08;;;;;;;;;;;;;;;18.32;64.32;100219.22;5074278;28;2347;-96
2022/06/23 12:38:50;;;;;;;;;;;;;;;18.34;64.54;100221.63;5053719;28;3494;-96
2022/06/23 12:44:33;;;;;;;;;;;;;;;18.37;64.78;100223.81;5067505;28;1400;-96
2022/06/23 12:47:06;;;;;;;;;;;;;;;18.38;64.55;100228.16;5067909;28;1949;-96
2022/06/23 12:49:36;;;;;;;;;;;;;;;18.39;64.84;100236.06;5048557;28;3176;-96
2022/06/23 12:52:08;;;;;;;;;;;;;;;18.42;64.52;100234.69;5072113;28;1260;-96
2022/06/23 12:54:50;;;;;;;;;;;;;;;18.44;64.84;100229.75;5063195;28;2111;-96
2022/06/23 13:00:00;;;;;;;;;;;;;;;18.48;64.83;100241.75;5102910;23;4022;-96
2022/06/23 13:02:27;;;;;;;;;;;;;;;18.50;64.66;100234.13;5030287;28;1323;-96
2022/06/23 13:04:53;;;;;;;;;;;;;;;18.51;65.06;100234.94;5028820;28;1496;-96
2022/06/23 13:07:24;;;;;;;;;;;;;;;18.53;65.11;100249.06;5009795;28;1911;-96
2022/06/23 13:09:57;;;;;;;;;;;;;;;18.52;64.95;100231.91;5029793;28;2032;-96
2022/06/23 13:12:24;;;;;;;;;;;;;;;18.55;65.09;100238.72;5013136;28;2935;-96
2022/06/23 13:14:51;;;;;;;;;;;;;;;18.54;65.04;100237.09;5016840;28;1339;-96
2022/06/23 13:20:11;;;;;;;;;;;;;;;18.58;65.06;100240.88;5045614;28;1341;-96
2022/06/23 13:40:01;;;;;;;;;;;;;;;18.68;65.24;100238.13;5020905;28;1319;-96
2022/06/23 13:45:45;;;;;;;;;;;;;;;18.71;65.41;100244.94;5022097;28;1883;-96
2022/06/23 13:53:58;;;;;;;;;;;;;;;18.75;65.47;100237.84;5034487;28;1662;-96
2022/06/23 14:02:14;;;;;;;;;;;;;;;18.79;65.48;100244.34;5015709;28;1329;-96
2022/06/23 14:04:52;;;;;;;;;;;;;;;18.79;65.51;100242.44;5017139;28;1457;-96
2022/06/23 14:07:30;;;;;;;;;;;;;;;18.80;65.22;100246.00;5034699;28;1906;-96
2022/06/23 14:09:57;;;;;;;;;;;;;;;18.80;65.44;100237.81;5016382;28;2041;-96
2022/06/23 14:12:25;;;;;;;;;;;;;;;18.83;65.36;100239.97;5014926;28;1457;-96
2022/06/23 14:14:52;;;;;;;;;;;;;;;18.83;65.43;100226.34;5037441;28;1468;-96
2022/06/23 14:17:26;;;;;;;;;;;;;;;18.87;65.55;100232.84;5018357;28;1298;-96
2022/06/23 14:25:30;;;;;;;;;;;;;;;18.89;65.57;100222.47;4983968;28;1610;-96
2022/06/23 14:27:57;;;;;;;;;;;;;;;18.91;65.33;100224.91;4999699;28;2474;-96
2022/06/23 14:30:25;;;;;;;;;;;;;;;19.15;65.04;100230.47;5009710;28;4151;-96
2022/06/23 14:32:53;;;;;;;;;;;;;;;19.10;65.06;100231.31;5001663;28;2656;-96
2022/06/23 14:35:20;;;;;;;;;;;;;;;19.04;65.40;100230.53;5023717;28;3699;-96
2022/06/23 14:37:47;;;;;;;;;;;;;;;19.05;65.19;100225.91;5002316;28;2197;-92
2022/06/23 14:40:16;;;;;;;;;;;;;;;19.03;65.30;100215.28;5020558;28;2447;-96
2022/06/23 14:42:42;;;;;;;;;;;;;;;19.03;65.51;100208.97;5014125;28;3605;-96
2022/06/23 14:45:11;;;;;;;;;;;;;;;19.04;65.38;100221.56;5001386;28;1865;-96
2022/06/23 14:47:37;;;;;;;;;;;;;;;19.06;65.40;100219.34;5020447;28;2255;-96
2022/06/23 14:50:04;;;;;;;;;;;;;;;19.07;65.62;100226.44;5009887;28;3765;-96
2022/06/23 14:52:57;;;;;;;;;;;;;;;19.09;65.60;100228.88;5026831;28;4326;-96
2022/06/23 14:55:24;;;;;;;;;;;;;;;19.08;65.35;100219.88;5002993;28;3343;-96
2022/06/23 14:57:52;;;;;;;;;;;;;;;19.10;65.54;100230.50;5013081;28;1376;-96